createdAt,value
2022-11-19T00:00:09.034Z,1007.86
2022-11-19T00:01:09.070Z,1007.81
2022-11-19T00:02:09.059Z,1007.80
2022-11-19T00:03:09.015Z,1007.82
2022-11-19T00:04:09.008Z,1007.76
2022-11-19T00:05:08.989Z,1007.81
2022-11-19T00:06:08.963Z,1007.74
2022-11-19T00:07:09.135Z,1007.77
2022-11-19T00:08:08.943Z,1007.73
2022-11-19T00:09:08.932Z,1007.72
2022-11-19T00:10:08.941Z,1007.75
2022-11-19T00:11:09.869Z,1007.70
2022-11-19T00:12:08.919Z,1007.70
2022-11-19T00:13:08.887Z,1007.71
2022-11-19T00:14:08.891Z,1007.76
2022-11-19T00:15:08.870Z,1007.75
2022-11-19T00:16:08.930Z,1007.77
2022-11-19T00:17:08.890Z,1007.77
2022-11-19T00:18:08.843Z,1007.73
2022-11-19T00:19:08.824Z,1007.76
2022-11-19T00:20:08.831Z,1007.77
2022-11-19T00:21:08.850Z,1007.79
2022-11-19T00:22:08.815Z,1007.82
2022-11-19T00:23:08.811Z,1007.79
2022-11-19T00:24:08.768Z,1007.80
2022-11-19T00:25:08.766Z,1007.83
2022-11-19T00:26:08.743Z,1007.85
2022-11-19T00:27:08.738Z,1007.85
2022-11-19T00:28:08.750Z,1007.82
2022-11-19T00:29:08.713Z,1007.87
2022-11-19T00:30:19.836Z,1007.85
2022-11-19T00:31:09.693Z,1007.89
2022-11-19T00:32:08.687Z,1007.86
2022-11-19T00:33:08.700Z,1007.80
2022-11-19T00:34:08.679Z,1007.87
2022-11-19T00:35:08.657Z,1007.82
2022-11-19T00:36:08.637Z,1007.86
2022-11-19T00:37:08.653Z,1007.83
2022-11-19T00:38:08.630Z,1007.89
2022-11-19T00:39:08.643Z,1007.90
2022-11-19T00:40:08.615Z,1007.90
2022-11-19T00:41:08.593Z,1007.96
2022-11-19T00:42:08.588Z,1007.97
2022-11-19T00:43:08.586Z,1007.97
2022-11-19T00:44:08.582Z,1007.97
2022-11-19T00:45:08.574Z,1008.00
2022-11-19T00:46:08.566Z,1007.99
2022-11-19T00:47:08.528Z,1007.94
2022-11-19T00:48:08.522Z,1007.98
2022-11-19T00:49:08.514Z,1007.99
2022-11-19T00:50:08.496Z,1007.99
2022-11-19T00:51:08.481Z,1007.97
2022-11-19T00:52:08.489Z,1008.00
2022-11-19T00:53:08.462Z,1007.99
2022-11-19T00:54:08.454Z,1008.02
2022-11-19T00:55:08.455Z,1008.02
2022-11-19T00:56:08.439Z,1008.02
2022-11-19T00:57:08.429Z,1008.01
2022-11-19T00:58:08.419Z,1008.06
2022-11-19T00:59:08.418Z,1008.04
2022-11-19T01:00:08.460Z,1008.02
2022-11-19T01:01:08.521Z,1008.08
2022-11-19T01:02:08.375Z,1008.04
2022-11-19T01:03:08.370Z,1008.08
2022-11-19T01:04:08.359Z,1008.11
2022-11-19T01:05:08.344Z,1008.07
2022-11-19T01:06:08.326Z,1008.10
2022-11-19T01:07:08.390Z,1008.09
2022-11-19T01:08:08.305Z,1008.09
2022-11-19T01:09:08.286Z,1008.08
2022-11-19T01:10:08.292Z,1008.12
2022-11-19T01:11:08.309Z,1008.14
2022-11-19T01:12:08.266Z,1008.13
2022-11-19T01:13:08.247Z,1008.14
2022-11-19T01:14:08.235Z,1008.16
2022-11-19T01:15:08.236Z,1008.15
2022-11-19T01:16:08.215Z,1008.13
2022-11-19T01:17:08.219Z,1008.15
2022-11-19T01:18:08.203Z,1008.15
2022-11-19T01:19:08.188Z,1008.13
2022-11-19T01:20:08.255Z,1008.13
2022-11-19T01:21:08.168Z,1008.17
2022-11-19T01:22:08.154Z,1008.14
2022-11-19T01:23:08.162Z,1008.13
2022-11-19T01:24:08.129Z,1008.09
2022-11-19T01:25:08.113Z,1008.10
2022-11-19T01:26:08.109Z,1008.09
2022-11-19T01:27:08.114Z,1008.11
2022-11-19T01:28:08.086Z,1008.10
2022-11-19T01:29:08.111Z,1008.09
2022-11-19T01:30:08.080Z,1008.10
2022-11-19T01:31:08.050Z,1008.11
2022-11-19T01:32:08.070Z,1008.08
2022-11-19T01:33:08.071Z,1008.13
2022-11-19T01:34:08.057Z,1008.19
2022-11-19T01:35:08.079Z,1008.14
2022-11-19T01:36:08.022Z,1008.09
2022-11-19T01:37:08.081Z,1008.09
2022-11-19T01:38:07.979Z,1008.10
2022-11-19T01:39:08.027Z,1008.14
2022-11-19T01:40:07.961Z,1008.14
2022-11-19T01:41:07.941Z,1008.14
2022-11-19T01:42:07.942Z,1008.15
2022-11-19T01:43:07.937Z,1008.17
2022-11-19T01:44:07.923Z,1008.18
2022-11-19T01:45:15.037Z,1008.21
2022-11-19T01:46:07.906Z,1008.22
2022-11-19T01:47:07.881Z,1008.21
2022-11-19T01:48:07.871Z,1008.21
2022-11-19T01:49:07.862Z,1008.19
2022-11-19T01:50:07.857Z,1008.21
2022-11-19T01:51:07.863Z,1008.18
2022-11-19T01:52:07.832Z,1008.16
2022-11-19T01:53:07.815Z,1008.18
2022-11-19T01:54:07.806Z,1008.16
2022-11-19T01:55:07.794Z,1008.14
2022-11-19T01:56:07.778Z,1008.16
2022-11-19T01:57:07.809Z,1008.18
2022-11-19T01:58:07.761Z,1008.21
2022-11-19T01:59:07.778Z,1008.24
2022-11-19T02:00:07.745Z,1008.26
2022-11-19T02:01:07.793Z,1008.32
2022-11-19T02:02:07.726Z,1008.30
2022-11-19T02:03:07.728Z,1008.34
2022-11-19T02:04:07.701Z,1008.37
2022-11-19T02:05:07.691Z,1008.35
2022-11-19T02:06:07.670Z,1008.38
2022-11-19T02:07:07.735Z,1008.41
2022-11-19T02:08:07.662Z,1008.40
2022-11-19T02:09:07.648Z,1008.40
2022-11-19T02:10:07.638Z,1008.41
2022-11-19T02:11:07.631Z,1008.42
2022-11-19T02:12:07.609Z,1008.41
2022-11-19T02:13:07.611Z,1008.39
2022-11-19T02:14:07.585Z,1008.47
2022-11-19T02:15:07.605Z,1008.41
2022-11-19T02:16:07.574Z,1008.42
2022-11-19T02:17:07.566Z,1008.44
2022-11-19T02:18:07.560Z,1008.45
2022-11-19T02:19:07.538Z,1008.44
2022-11-19T02:20:07.528Z,1008.46
2022-11-19T02:21:07.512Z,1008.51
2022-11-19T02:22:07.502Z,1008.52
2022-11-19T02:23:07.507Z,1008.50
2022-11-19T02:24:07.480Z,1008.51
2022-11-19T02:25:07.467Z,1008.50
2022-11-19T02:26:07.460Z,1008.49
2022-11-19T02:27:07.445Z,1008.49
2022-11-19T02:28:07.437Z,1008.48
2022-11-19T02:29:07.450Z,1008.48
2022-11-19T02:30:07.422Z,1008.42
2022-11-19T02:31:07.433Z,1008.39
2022-11-19T02:32:07.402Z,1008.39
2022-11-19T02:33:07.386Z,1008.39
2022-11-19T02:34:07.381Z,1008.35
2022-11-19T02:35:07.360Z,1008.34
2022-11-19T02:36:07.351Z,1008.33
2022-11-19T02:37:07.350Z,1008.30
2022-11-19T02:38:07.330Z,1008.30
2022-11-19T02:39:07.340Z,1008.25
2022-11-19T02:40:07.310Z,1008.25
2022-11-19T02:41:07.317Z,1008.20
2022-11-19T02:42:07.293Z,1008.18
2022-11-19T02:43:07.280Z,1008.24
2022-11-19T02:44:07.274Z,1008.26
2022-11-19T02:45:07.282Z,1008.27
2022-11-19T02:46:07.252Z,1008.27
2022-11-19T02:47:07.265Z,1008.24
2022-11-19T02:48:07.227Z,1008.25
2022-11-19T02:49:07.217Z,1008.28
2022-11-19T02:50:07.226Z,1008.27
2022-11-19T02:51:07.211Z,1008.27
2022-11-19T02:52:07.189Z,1008.27
2022-11-19T02:53:07.180Z,1008.25
2022-11-19T02:54:07.166Z,1008.27
2022-11-19T02:55:07.170Z,1008.25
2022-11-19T02:56:07.138Z,1008.26
2022-11-19T02:57:07.152Z,1008.24
2022-11-19T02:58:07.122Z,1008.26
2022-11-19T02:59:07.103Z,1008.22
2022-11-19T03:00:07.109Z,1008.23
2022-11-19T03:01:07.169Z,1008.24
2022-11-19T03:02:07.088Z,1008.23
2022-11-19T03:03:07.081Z,1008.26
2022-11-19T03:04:07.074Z,1008.29
2022-11-19T03:05:07.055Z,1008.28
2022-11-19T03:06:07.035Z,1008.30
2022-11-19T03:07:07.105Z,1008.28
2022-11-19T03:08:07.030Z,1008.23
2022-11-19T03:09:07.006Z,1008.28
2022-11-19T03:10:06.991Z,1008.28
2022-11-19T03:11:06.984Z,1008.33
2022-11-19T03:12:06.976Z,1008.30
2022-11-19T03:13:06.980Z,1008.32
2022-11-19T03:14:06.956Z,1008.26
2022-11-19T03:15:06.934Z,1008.30
2022-11-19T03:16:06.936Z,1008.30
2022-11-19T03:17:06.930Z,1008.32
2022-11-19T03:18:06.938Z,1008.38
2022-11-19T03:19:06.911Z,1008.37
2022-11-19T03:20:06.897Z,1008.36
2022-11-19T03:21:06.884Z,1008.36
2022-11-19T03:22:06.869Z,1008.34
2022-11-19T03:23:06.861Z,1008.37
2022-11-19T03:24:06.867Z,1008.37
2022-11-19T03:25:06.835Z,1008.36
2022-11-19T03:26:06.830Z,1008.34
2022-11-19T03:27:06.814Z,1008.36
2022-11-19T03:28:06.798Z,1008.37
2022-11-19T03:29:06.813Z,1008.33
2022-11-19T03:30:06.874Z,1008.34
2022-11-19T03:31:06.774Z,1008.29
2022-11-19T03:32:06.767Z,1008.31
2022-11-19T03:33:06.752Z,1008.33
2022-11-19T03:34:06.735Z,1008.34
2022-11-19T03:35:06.766Z,1008.33
2022-11-19T03:36:06.717Z,1008.32
2022-11-19T03:37:06.717Z,1008.36
2022-11-19T03:38:06.695Z,1008.35
2022-11-19T03:39:06.688Z,1008.41
2022-11-19T03:40:06.900Z,1008.46
2022-11-19T03:41:06.680Z,1008.46
2022-11-19T03:42:06.657Z,1008.54
2022-11-19T03:43:06.654Z,1008.50
2022-11-19T03:44:06.628Z,1008.56
2022-11-19T03:45:06.616Z,1008.52
2022-11-19T03:46:06.615Z,1008.57
2022-11-19T03:47:06.598Z,1008.56
2022-11-19T03:48:06.595Z,1008.58
2022-11-19T03:49:06.581Z,1008.59
2022-11-19T03:50:06.566Z,1008.56
2022-11-19T03:51:06.593Z,1008.58
2022-11-19T03:52:06.553Z,1008.60
2022-11-19T03:53:06.534Z,1008.61
2022-11-19T03:54:06.523Z,1008.65
2022-11-19T03:55:06.509Z,1008.64
2022-11-19T03:56:06.501Z,1008.63
2022-11-19T03:57:06.500Z,1008.64
2022-11-19T03:58:06.486Z,1008.58
2022-11-19T03:59:08.492Z,1008.60
2022-11-19T04:00:06.469Z,1008.62
2022-11-19T04:01:06.447Z,1008.59
2022-11-19T04:02:06.553Z,1008.58
2022-11-19T04:03:06.438Z,1008.54
2022-11-19T04:04:06.436Z,1008.54
2022-11-19T04:05:06.407Z,1008.54
2022-11-19T04:06:06.392Z,1008.62
2022-11-19T04:07:06.469Z,1008.66
2022-11-19T04:08:06.379Z,1008.63
2022-11-19T04:09:06.361Z,1008.63
2022-11-19T04:10:06.358Z,1008.62
2022-11-19T04:11:35.736Z,1008.59
2022-11-19T04:12:35.737Z,1008.65
2022-11-19T04:13:35.705Z,1008.62
2022-11-19T04:14:35.695Z,1008.62
2022-11-19T04:15:35.683Z,1008.63
2022-11-19T04:16:35.679Z,1008.65
2022-11-19T04:17:35.688Z,1008.65
2022-11-19T04:18:35.675Z,1008.62
2022-11-19T04:19:35.644Z,1008.63
2022-11-19T04:20:35.642Z,1008.64
2022-11-19T04:21:35.617Z,1008.58
2022-11-19T04:22:35.638Z,1008.61
2022-11-19T04:23:35.629Z,1008.63
2022-11-19T04:24:35.589Z,1008.56
2022-11-19T04:25:35.579Z,1008.55
2022-11-19T04:26:35.569Z,1008.51
2022-11-19T04:27:35.570Z,1008.53
2022-11-19T04:28:35.551Z,1008.52
2022-11-19T04:29:35.561Z,1008.57
2022-11-19T04:30:35.532Z,1008.59
2022-11-19T04:31:35.522Z,1008.57
2022-11-19T04:32:35.504Z,1008.57
2022-11-19T04:33:35.492Z,1008.58
2022-11-19T04:34:35.491Z,1008.53
2022-11-19T04:35:35.505Z,1008.57
2022-11-19T04:36:35.463Z,1008.51
2022-11-19T04:37:35.451Z,1008.59
2022-11-19T04:38:35.460Z,1008.62
2022-11-19T04:39:35.436Z,1008.59
2022-11-19T04:40:35.437Z,1008.57
2022-11-19T04:41:35.430Z,1008.55
2022-11-19T04:42:35.399Z,1008.60
2022-11-19T04:43:35.398Z,1008.55
2022-11-19T04:44:35.382Z,1008.54
2022-11-19T04:45:35.389Z,1008.56
2022-11-19T04:46:35.368Z,1008.54
2022-11-19T04:47:35.403Z,1008.55
2022-11-19T04:48:35.347Z,1008.55
2022-11-19T04:49:35.334Z,1008.52
2022-11-19T04:50:35.335Z,1008.50
2022-11-19T04:51:35.307Z,1008.54
2022-11-19T04:52:40.476Z,1008.51
2022-11-19T04:53:35.292Z,1008.46
2022-11-19T04:54:35.291Z,1008.47
2022-11-19T04:55:35.270Z,1008.42
2022-11-19T04:56:35.264Z,1008.42
2022-11-19T04:57:35.248Z,1008.41
2022-11-19T04:58:35.235Z,1008.40
2022-11-19T04:59:35.221Z,1008.41
2022-11-19T05:00:35.211Z,1008.42
2022-11-19T05:01:35.272Z,1008.41
2022-11-19T05:02:35.210Z,1008.35
2022-11-19T05:03:35.193Z,1008.36
2022-11-19T05:04:35.174Z,1008.35
2022-11-19T05:05:35.165Z,1008.37
2022-11-19T05:06:35.151Z,1008.38
2022-11-19T05:07:35.190Z,1008.36
2022-11-19T05:08:35.138Z,1008.36
2022-11-19T05:09:35.117Z,1008.36
2022-11-19T05:10:35.223Z,1008.35
2022-11-19T05:11:35.098Z,1008.38
2022-11-19T05:12:35.086Z,1008.38
2022-11-19T05:13:35.095Z,1008.35
2022-11-19T05:14:35.073Z,1008.39
2022-11-19T05:15:35.062Z,1008.37
2022-11-19T05:16:35.039Z,1008.36
2022-11-19T05:17:35.059Z,1008.32
2022-11-19T05:18:35.033Z,1008.33
2022-11-19T05:19:35.022Z,1008.28
2022-11-19T05:20:35.007Z,1008.31
2022-11-19T05:21:35.009Z,1008.34
2022-11-19T05:22:34.979Z,1008.31
2022-11-19T05:23:34.968Z,1008.30
2022-11-19T05:24:34.968Z,1008.28
2022-11-19T05:25:34.947Z,1008.26
2022-11-19T05:26:34.978Z,1008.28
2022-11-19T05:27:34.936Z,1008.26
2022-11-19T05:28:38.982Z,1008.28
2022-11-19T05:29:34.918Z,1008.27
2022-11-19T05:30:34.897Z,1008.29
2022-11-19T05:31:34.888Z,1008.28
2022-11-19T05:32:34.877Z,1008.26
2022-11-19T05:33:34.972Z,1008.25
2022-11-19T05:34:34.883Z,1008.24
2022-11-19T05:35:34.842Z,1008.26
2022-11-19T05:36:34.833Z,1008.24
2022-11-19T05:37:34.829Z,1008.28
2022-11-19T05:38:34.826Z,1008.25
2022-11-19T05:39:34.833Z,1008.25
2022-11-19T05:40:34.797Z,1008.26
2022-11-19T05:41:34.778Z,1008.21
2022-11-19T05:42:34.785Z,1008.20
2022-11-19T05:43:34.766Z,1008.21
2022-11-19T05:44:34.761Z,1008.21
2022-11-19T05:45:34.784Z,1008.22
2022-11-19T05:46:34.726Z,1008.18
2022-11-19T05:47:34.715Z,1008.17
2022-11-19T05:48:34.708Z,1008.19
2022-11-19T05:49:34.702Z,1008.21
2022-11-19T05:50:34.700Z,1008.19
2022-11-19T05:51:34.693Z,1008.19
2022-11-19T05:52:34.663Z,1008.17
2022-11-19T05:53:34.687Z,1008.20
2022-11-19T05:54:34.676Z,1008.21
2022-11-19T05:55:34.654Z,1008.30
2022-11-19T05:56:34.624Z,1008.28
2022-11-19T05:57:34.629Z,1008.30
2022-11-19T05:58:34.616Z,1008.27
2022-11-19T05:59:34.600Z,1008.26
2022-11-19T06:00:34.587Z,1008.29
2022-11-19T06:01:34.577Z,1008.30
2022-11-19T06:02:34.630Z,1008.32
2022-11-19T06:03:34.557Z,1008.39
2022-11-19T06:04:34.548Z,1008.37
2022-11-19T06:05:39.881Z,1008.39
2022-11-19T06:06:35.513Z,1008.35
2022-11-19T06:07:34.559Z,1008.38
2022-11-19T06:08:34.519Z,1008.34
2022-11-19T06:09:34.491Z,1008.33
2022-11-19T06:10:34.480Z,1008.30
2022-11-19T06:11:34.475Z,1008.37
2022-11-19T06:12:34.455Z,1008.32
2022-11-19T06:13:34.447Z,1008.37
2022-11-19T06:14:34.458Z,1008.39
2022-11-19T06:15:34.423Z,1008.40
2022-11-19T06:16:34.418Z,1008.40
2022-11-19T06:17:34.422Z,1008.40
2022-11-19T06:18:34.414Z,1008.38
2022-11-19T06:19:34.379Z,1008.40
2022-11-19T06:20:34.377Z,1008.38
2022-11-19T06:21:34.361Z,1008.44
2022-11-19T06:22:34.356Z,1008.42
2022-11-19T06:23:34.348Z,1008.43
2022-11-19T06:24:34.333Z,1008.42
2022-11-19T06:25:34.316Z,1008.43
2022-11-19T06:26:34.309Z,1008.38
2022-11-19T06:27:34.304Z,1008.39
2022-11-19T06:28:34.313Z,1008.40
2022-11-19T06:29:34.285Z,1008.36
2022-11-19T06:30:34.292Z,1008.35
2022-11-19T06:31:34.253Z,1008.37
2022-11-19T06:32:34.258Z,1008.35
2022-11-19T06:33:34.241Z,1008.34
2022-11-19T06:34:34.241Z,1008.40
2022-11-19T06:35:34.213Z,1008.37
2022-11-19T06:36:40.221Z,1008.36
2022-11-19T06:37:35.259Z,1008.39
2022-11-19T06:38:34.201Z,1008.43
2022-11-19T06:39:34.173Z,1008.38
2022-11-19T06:40:34.178Z,1008.36
2022-11-19T06:41:34.147Z,1008.36
2022-11-19T06:42:34.148Z,1008.36
2022-11-19T06:43:34.145Z,1008.37
2022-11-19T06:44:34.112Z,1008.35
2022-11-19T06:45:34.128Z,1008.36
2022-11-19T06:46:34.114Z,1008.34
2022-11-19T06:47:34.095Z,1008.38
2022-11-19T06:48:34.082Z,1008.32
2022-11-19T06:49:34.073Z,1008.34
2022-11-19T06:50:34.068Z,1008.34
2022-11-19T06:51:34.060Z,1008.37
2022-11-19T06:52:34.035Z,1008.33
2022-11-19T06:53:34.053Z,1008.36
2022-11-19T06:54:36.659Z,1008.35
2022-11-19T06:55:34.007Z,1008.41
2022-11-19T06:56:34.000Z,1008.38
2022-11-19T06:57:33.981Z,1008.40
2022-11-19T06:58:33.974Z,1008.41
2022-11-19T06:59:33.991Z,1008.38
2022-11-19T07:00:33.965Z,1008.32
2022-11-19T07:01:33.992Z,1008.30
2022-11-19T07:02:34.017Z,1008.31
2022-11-19T07:03:33.922Z,1008.29
2022-11-19T07:04:33.949Z,1008.32
2022-11-19T07:05:33.900Z,1008.35
2022-11-19T07:06:33.892Z,1008.34
2022-11-19T07:07:33.910Z,1008.37
2022-11-19T07:08:33.863Z,1008.37
2022-11-19T07:09:33.852Z,1008.42
2022-11-19T07:10:33.876Z,1008.45
2022-11-19T07:11:33.837Z,1008.46
2022-11-19T07:12:33.835Z,1008.47
2022-11-19T07:13:33.822Z,1008.48
2022-11-19T07:14:33.819Z,1008.50
2022-11-19T07:15:33.808Z,1008.51
2022-11-19T07:16:33.790Z,1008.49
2022-11-19T07:17:33.795Z,1008.47
2022-11-19T07:18:33.783Z,1008.54
2022-11-19T07:19:33.747Z,1008.46
2022-11-19T07:20:33.750Z,1008.48
2022-11-19T07:21:33.736Z,1008.49
2022-11-19T07:22:33.730Z,1008.45
2022-11-19T07:23:33.714Z,1008.44
2022-11-19T07:24:33.979Z,1008.43
2022-11-19T07:25:33.683Z,1008.36
2022-11-19T07:26:33.680Z,1008.35
2022-11-19T07:27:33.678Z,1008.29
2022-11-19T07:28:33.666Z,1008.27
2022-11-19T07:29:33.646Z,1008.30
2022-11-19T07:30:33.643Z,1008.33
2022-11-19T07:31:33.623Z,1008.33
2022-11-19T07:32:33.666Z,1008.28
2022-11-19T07:33:33.601Z,1008.27
2022-11-19T07:34:33.611Z,1008.30
2022-11-19T07:35:33.586Z,1008.27
2022-11-19T07:36:33.571Z,1008.30
2022-11-19T07:37:33.567Z,1008.37
2022-11-19T07:38:36.973Z,1008.38
2022-11-19T07:39:33.544Z,1008.41
2022-11-19T07:40:33.526Z,1008.42
2022-11-19T07:41:33.513Z,1008.39
2022-11-19T07:42:33.506Z,1008.42
2022-11-19T07:43:33.507Z,1008.43
2022-11-19T07:44:33.499Z,1008.43
2022-11-19T07:45:33.492Z,1008.50
2022-11-19T07:46:33.506Z,1008.46
2022-11-19T07:47:33.476Z,1008.44
2022-11-19T07:48:33.454Z,1008.41
2022-11-19T07:49:33.442Z,1008.40
2022-11-19T07:50:33.441Z,1008.41
2022-11-19T07:51:33.414Z,1008.43
2022-11-19T07:52:33.423Z,1008.47
2022-11-19T07:53:33.398Z,1008.45
2022-11-19T07:54:33.381Z,1008.43
2022-11-19T07:55:33.402Z,1008.42
2022-11-19T07:56:33.363Z,1008.46
2022-11-19T07:57:33.382Z,1008.44
2022-11-19T07:58:33.351Z,1008.40
2022-11-19T07:59:33.351Z,1008.42
2022-11-19T08:00:33.321Z,1008.36
2022-11-19T08:01:33.360Z,1008.29
2022-11-19T08:02:33.331Z,1008.25
2022-11-19T08:03:33.289Z,1008.24
2022-11-19T08:04:33.284Z,1008.29
2022-11-19T08:05:33.271Z,1008.28
2022-11-19T08:06:33.279Z,1008.25
2022-11-19T08:07:33.366Z,1008.21
2022-11-19T08:08:33.251Z,1008.24
2022-11-19T08:09:33.229Z,1008.20
2022-11-19T08:10:33.370Z,1008.23
2022-11-19T08:11:33.209Z,1008.24
2022-11-19T08:12:33.192Z,1008.20
2022-11-19T08:13:33.196Z,1008.14
2022-11-19T08:14:33.175Z,1008.15
2022-11-19T08:15:33.156Z,1008.12
2022-11-19T08:16:33.169Z,1008.12
2022-11-19T08:17:33.148Z,1008.07
2022-11-19T08:18:33.132Z,1008.08
2022-11-19T08:19:33.137Z,1008.06
2022-11-19T08:20:33.102Z,1008.10
2022-11-19T08:21:33.092Z,1008.08
2022-11-19T08:22:33.258Z,1008.09
2022-11-19T08:23:33.080Z,1008.02
2022-11-19T08:24:33.068Z,1008.00
2022-11-19T08:25:33.061Z,1008.04
2022-11-19T08:26:33.064Z,1008.01
2022-11-19T08:27:33.028Z,1008.00
2022-11-19T08:28:33.040Z,1007.99
2022-11-19T08:29:33.035Z,1008.02
2022-11-19T08:30:33.003Z,1008.01
2022-11-19T08:31:32.986Z,1007.99
2022-11-19T08:32:32.991Z,1007.99
2022-11-19T08:33:32.966Z,1007.99
2022-11-19T08:34:32.963Z,1007.98
2022-11-19T08:35:32.968Z,1007.96
2022-11-19T08:36:32.931Z,1008.00
2022-11-19T08:37:32.918Z,1007.98
2022-11-19T08:38:38.254Z,1007.97
2022-11-19T08:39:33.901Z,1007.93
2022-11-19T08:40:32.923Z,1007.96
2022-11-19T08:41:32.910Z,1008.02
2022-11-19T08:42:32.876Z,1007.95
2022-11-19T08:43:32.861Z,1008.04
2022-11-19T08:44:32.853Z,1007.98
2022-11-19T08:45:32.841Z,1007.97
2022-11-19T08:46:32.837Z,1007.97
2022-11-19T08:47:32.828Z,1007.98
2022-11-19T08:48:32.816Z,1007.95
2022-11-19T08:49:32.863Z,1007.97
2022-11-19T08:50:32.800Z,1007.99
2022-11-19T08:51:32.783Z,1007.96
2022-11-19T08:52:32.763Z,1007.98
2022-11-19T08:53:32.769Z,1007.96
2022-11-19T08:54:33.477Z,1007.95
2022-11-19T08:55:32.756Z,1007.96
2022-11-19T08:56:32.738Z,1007.95
2022-11-19T08:57:32.714Z,1007.98
2022-11-19T08:58:32.722Z,1007.92
2022-11-19T08:59:32.687Z,1007.89
2022-11-19T09:00:32.811Z,1007.92
2022-11-19T09:01:32.669Z,1007.93
2022-11-19T09:02:32.671Z,1007.95
2022-11-19T09:03:32.676Z,1007.95
2022-11-19T09:04:32.650Z,1007.93
2022-11-19T09:05:32.629Z,1007.94
2022-11-19T09:06:32.620Z,1008.02
2022-11-19T09:07:32.676Z,1007.97
2022-11-19T09:08:32.602Z,1007.99
2022-11-19T09:09:32.601Z,1007.96
2022-11-19T09:10:32.604Z,1007.93
2022-11-19T09:11:32.558Z,1007.97
2022-11-19T09:12:32.568Z,1007.92
2022-11-19T09:13:32.543Z,1008.00
2022-11-19T09:14:32.542Z,1007.93
2022-11-19T09:15:32.525Z,1007.92
2022-11-19T09:16:32.502Z,1007.97
2022-11-19T09:17:32.500Z,1007.97
2022-11-19T09:18:32.495Z,1007.95
2022-11-19T09:19:32.487Z,1007.93
2022-11-19T09:20:32.481Z,1008.00
2022-11-19T09:21:32.460Z,1007.98
2022-11-19T09:22:32.438Z,1008.01
2022-11-19T09:23:32.429Z,1008.02
2022-11-19T09:24:32.416Z,1008.09
2022-11-19T09:25:32.444Z,1008.05
2022-11-19T09:26:32.433Z,1008.10
2022-11-19T09:27:32.386Z,1008.08
2022-11-19T09:28:32.383Z,1008.05
2022-11-19T09:29:32.363Z,1008.11
2022-11-19T09:30:32.353Z,1008.10
2022-11-19T09:31:32.342Z,1008.07
2022-11-19T09:32:32.365Z,1008.07
2022-11-19T09:33:32.335Z,1008.12
2022-11-19T09:34:32.313Z,1008.11
2022-11-19T09:35:32.305Z,1008.13
2022-11-19T09:36:32.289Z,1008.06
2022-11-19T09:37:32.282Z,1008.09
2022-11-19T09:38:32.286Z,1008.12
2022-11-19T09:39:32.264Z,1008.00
2022-11-19T09:40:42.494Z,1007.99
2022-11-19T09:41:32.239Z,1008.05
2022-11-19T09:42:32.243Z,1008.11
2022-11-19T09:43:32.229Z,1008.13
2022-11-19T09:44:32.210Z,1008.15
2022-11-19T09:45:32.190Z,1008.10
2022-11-19T09:46:32.195Z,1008.04
2022-11-19T09:47:32.170Z,1007.98
2022-11-19T09:48:32.181Z,1008.03
2022-11-19T09:49:32.149Z,1008.03
2022-11-19T09:50:32.141Z,1007.94
2022-11-19T09:51:32.133Z,1007.95
2022-11-19T09:52:32.140Z,1007.93
2022-11-19T09:53:32.165Z,1007.90
2022-11-19T09:54:32.106Z,1007.86
2022-11-19T09:55:32.087Z,1007.86
2022-11-19T09:56:32.075Z,1007.86
2022-11-19T09:57:32.068Z,1007.88
2022-11-19T09:58:32.089Z,1007.83
2022-11-19T09:59:32.059Z,1007.76
2022-11-19T10:00:32.046Z,1007.77
2022-11-19T10:01:32.030Z,1007.79
2022-11-19T10:02:32.056Z,1007.80
2022-11-19T10:03:33.845Z,1007.80
2022-11-19T10:04:32.009Z,1007.85
2022-11-19T10:05:31.988Z,1007.81
2022-11-19T10:06:31.979Z,1007.78
2022-11-19T10:07:32.026Z,1007.74
2022-11-19T10:08:31.949Z,1007.73
2022-11-19T10:09:31.958Z,1007.78
2022-11-19T10:10:31.933Z,1007.80
2022-11-19T10:11:31.933Z,1007.76
2022-11-19T10:12:31.908Z,1007.82
2022-11-19T10:13:31.897Z,1007.82
2022-11-19T10:14:31.905Z,1007.74
2022-11-19T10:15:37.174Z,1007.73
2022-11-19T10:16:32.865Z,1007.72
2022-11-19T10:17:31.859Z,1007.64
2022-11-19T10:18:31.847Z,1007.68
2022-11-19T10:19:31.913Z,1007.65
2022-11-19T10:20:31.828Z,1007.69
2022-11-19T10:21:31.833Z,1007.64
2022-11-19T10:22:31.806Z,1007.60
2022-11-19T10:23:31.799Z,1007.57
2022-11-19T10:24:31.784Z,1007.57
2022-11-19T10:25:31.767Z,1007.56
2022-11-19T10:26:31.787Z,1007.57
2022-11-19T10:27:31.748Z,1007.55
2022-11-19T10:28:31.734Z,1007.53
2022-11-19T10:29:31.724Z,1007.58
2022-11-19T10:30:31.727Z,1007.55
2022-11-19T10:31:31.768Z,1007.61
2022-11-19T10:32:31.713Z,1007.61
2022-11-19T10:33:31.710Z,1007.62
2022-11-19T10:34:31.672Z,1007.56
2022-11-19T10:35:31.673Z,1007.51
2022-11-19T10:36:31.653Z,1007.57
2022-11-19T10:37:31.680Z,1007.52
2022-11-19T10:38:31.626Z,1007.55
2022-11-19T10:39:31.641Z,1007.52
2022-11-19T10:40:31.604Z,1007.42
2022-11-19T10:41:31.595Z,1007.48
2022-11-19T10:42:31.589Z,1007.46
2022-11-19T10:43:31.585Z,1007.47
2022-11-19T10:44:31.566Z,1007.40
2022-11-19T10:45:31.559Z,1007.47
2022-11-19T10:46:31.564Z,1007.42
2022-11-19T10:47:31.533Z,1007.42
2022-11-19T10:48:31.535Z,1007.31
2022-11-19T10:49:31.515Z,1007.38
2022-11-19T10:50:31.503Z,1007.35
2022-11-19T10:51:31.489Z,1007.34
2022-11-19T10:52:31.474Z,1007.32
2022-11-19T10:53:31.481Z,1007.27
2022-11-19T10:54:31.466Z,1007.21
2022-11-19T10:55:31.465Z,1007.21
2022-11-19T10:56:31.440Z,1007.21
2022-11-19T10:57:31.430Z,1007.10
2022-11-19T10:58:31.417Z,1007.19
2022-11-19T10:59:31.398Z,1007.18
2022-11-19T11:00:31.386Z,1007.22
2022-11-19T11:01:31.509Z,1007.15
2022-11-19T11:02:31.414Z,1007.18
2022-11-19T11:03:31.357Z,1007.23
2022-11-19T11:04:31.351Z,1007.15
2022-11-19T11:05:31.343Z,1007.17
2022-11-19T11:06:31.338Z,1007.13
2022-11-19T11:07:31.325Z,1007.13
2022-11-19T11:08:31.318Z,1007.12
2022-11-19T11:09:31.299Z,1007.05
2022-11-19T11:10:31.289Z,1007.10
2022-11-19T11:11:31.283Z,1007.13
2022-11-19T11:12:31.268Z,1007.10
2022-11-19T11:13:31.250Z,1007.07
2022-11-19T11:14:31.247Z,1007.06
2022-11-19T11:15:31.234Z,1007.15
2022-11-19T11:16:35.151Z,1007.03
2022-11-19T11:17:31.218Z,1007.16
2022-11-19T11:18:31.219Z,1007.07
2022-11-19T11:19:31.192Z,1007.08
2022-11-19T11:20:31.197Z,1007.01
2022-11-19T11:21:31.171Z,1006.97
2022-11-19T11:22:31.168Z,1007.01
2022-11-19T11:23:31.155Z,1006.92
2022-11-19T11:24:31.142Z,1006.93
2022-11-19T11:25:31.118Z,1006.96
2022-11-19T11:26:31.114Z,1006.91
2022-11-19T11:27:31.113Z,1006.88
2022-11-19T11:28:31.122Z,1006.83
2022-11-19T11:29:31.087Z,1006.85
2022-11-19T11:30:31.077Z,1006.77
2022-11-19T11:31:31.080Z,1006.75
2022-11-19T11:32:31.054Z,1006.73
2022-11-19T11:33:31.059Z,1006.69
2022-11-19T11:34:31.045Z,1006.77
2022-11-19T11:35:31.035Z,1006.75
2022-11-19T11:36:31.005Z,1006.72
2022-11-19T11:37:31.004Z,1006.72
2022-11-19T11:38:30.993Z,1006.71
2022-11-19T11:39:30.997Z,1006.73
2022-11-19T11:40:30.957Z,1006.72
2022-11-19T11:42:04.443Z,1006.69
2022-11-19T11:42:31.967Z,1006.74
2022-11-19T11:43:30.938Z,1006.63
2022-11-19T11:44:30.926Z,1006.67
2022-11-19T11:45:30.912Z,1006.63
2022-11-19T11:46:30.920Z,1006.58
2022-11-19T11:47:30.905Z,1006.59
2022-11-19T11:48:30.873Z,1006.52
2022-11-19T11:49:30.873Z,1006.58
2022-11-19T11:50:30.906Z,1006.61
2022-11-19T11:51:30.860Z,1006.60
2022-11-19T11:52:30.843Z,1006.54
2022-11-19T11:53:30.833Z,1006.57
2022-11-19T11:54:30.819Z,1006.61
2022-11-19T11:55:30.824Z,1006.59
2022-11-19T11:56:30.798Z,1006.65
2022-11-19T11:57:30.784Z,1006.65
2022-11-19T11:58:30.779Z,1006.62
2022-11-19T11:59:30.774Z,1006.63
2022-11-19T12:00:30.749Z,1006.54
2022-11-19T12:01:30.752Z,1006.60
2022-11-19T12:02:30.969Z,1006.66
2022-11-19T12:03:30.735Z,1006.62
2022-11-19T12:04:30.712Z,1006.70
2022-11-19T12:05:30.694Z,1006.64